Strona główna
METAR-TAF:

METAR-TAF

Lotnisko :

Port lotniczy Nantes

Nantes, Francja

Szerokość geograficzna: 47-10N, Długość geograficzna: 001-36W, wysokość: 27 m

Aktualna obserwacja pogody

Raport powstał 34 minut temu, godzina 00:00 UTC
Wiatr 5 kt od południowo-południowy wschód
Temperatura 21°C
Wilgotność 94%
Ciśnienie 1013 hPa
Widzialność 10 km lub więcej
Brak chmur poniżej 1500 m i brak chmur cumulonimbus

METAR: LFRS 240000Z AUTO 16005KT CAVOK 21/20 Q1013 NOSIG

czas: 02:34 (00:34 UTC)

Prognoza

Raport powstał 1 godzina i 34 minut temu, godzina 23:00 UTC
Prognoza ważna od 24 godzina 00 UTC do 25 godzina 06 UTC
Wiatr 4 kt od południowo-południowy zachód
Widzialność 10 km lub więcej
Brak chmur poniżej 1500 m i brak chmur cumulonimbus
Przejściowo
od 24 godzina 04 UTC do 24 godzina 07 UTC
Przerywane chmury na wysokości 700 ft

TAF: LFRS 232300Z 2400/2506 21004KT CAVOK TEMPO 2404/2407 BKN007

Obserwacja i prognoza pogody dla ponad 4000 lotnisk (raport METAR i TAF).

Dostępne stacje oznaczono żółtymi i czerwonymi punktami na mapie.

Najedź kursorem aby zobaczyć nazwę stacji.

Kliknij aby zobaczyć obserwacje i prognozy pogody.

Aby zmienić mapę: kliknij na zielony przycisk z czarnym krzyżykiem, aby powiększyć; na zielony przycisk z myślnikiem, aby pomniejszyć; na zielone strzałki, aby przejść do map sąsiednich.


METAR-TAF: